Time;durP1;ratioP1;P1;durP2;ratioP2;P2;SDS_P1;SDS_P2;PMS_P1;PMS_P2;Temp;Humidity;BMP_temperature;BMP_pressure;BME280_temperature;BME280_humidity;BME280_pressure;Samples;Min_cycle;Max_cycle;Signal;HPM_P1;HPM_P2
2021/11/02 00:00:16;;;;;;;3.67;2.60;;;10.20;99.90;;;;;;5010415;28;20206;-83
2021/11/02 00:02:50;;;;;;;3.17;1.97;;;10.20;99.90;;;;;;5009455;28;20233;-82
2021/11/02 00:05:21;;;;;;;2.80;2.07;;;10.30;99.90;;;;;;5000645;28;20238;-82
2021/11/02 00:07:52;;;;;;;1.37;1.27;;;10.30;99.90;;;;;;4989554;28;20211;-82
2021/11/02 00:10:23;;;;;;;2.93;1.80;;;10.20;99.90;;;;;;4991014;28;20215;-84
2021/11/02 00:12:56;;;;;;;2.60;1.47;;;10.20;99.90;;;;;;4990622;28;20239;-84
2021/11/02 00:15:33;;;;;;;2.23;1.67;;;10.20;99.90;;;;;;4991241;28;20211;-81
2021/11/02 00:18:07;;;;;;;2.90;1.53;;;10.20;99.90;;;;;;4992263;28;20203;-83
2021/11/02 00:20:38;;;;;;;3.30;1.80;;;10.10;99.90;;;;;;5010896;28;20207;-83
2021/11/02 00:23:10;;;;;;;2.33;1.63;;;10.10;99.90;;;;;;5011198;28;20199;-81
2021/11/02 00:25:42;;;;;;;1.93;1.70;;;10.10;99.90;;;;;;5004816;28;20206;-82
2021/11/02 00:28:13;;;;;;;2.13;1.93;;;10.10;99.90;;;;;;5012081;28;20267;-82
2021/11/02 00:30:44;;;;;;;2.53;1.83;;;10.10;99.90;;;;;;5024052;28;20211;-82
2021/11/02 00:33:18;;;;;;;1.93;1.70;;;10.10;99.90;;;;;;5007237;28;20233;-82
2021/11/02 00:35:49;;;;;;;2.83;1.90;;;10.10;99.90;;;;;;5024937;28;20709;-82
2021/11/02 00:38:20;;;;;;;2.63;2.17;;;10.10;99.90;;;;;;5024486;28;20205;-82
2021/11/02 00:40:52;;;;;;;2.90;2.17;;;10.10;99.90;;;;;;5004644;28;20680;-80
2021/11/02 00:43:25;;;;;;;3.13;2.37;;;10.20;99.90;;;;;;5003914;28;20218;-82
2021/11/02 00:45:56;;;;;;;3.40;2.67;;;10.10;99.90;;;;;;5004145;28;20213;-81
2021/11/02 00:48:30;;;;;;;2.80;2.47;;;10.20;99.90;;;;;;5005600;28;20277;-82
2021/11/02 00:51:01;;;;;;;4.20;2.50;;;10.20;99.90;;;;;;5006963;28;20214;-82
2021/11/02 00:53:32;;;;;;;2.83;2.30;;;10.20;99.90;;;;;;5007108;28;20230;-82
2021/11/02 00:56:03;;;;;;;2.70;2.30;;;10.10;99.90;;;;;;5008318;28;20206;-81
2021/11/02 00:58:36;;;;;;;5.00;2.80;;;10.10;99.90;;;;;;5008969;28;20233;-81
2021/11/02 01:01:10;;;;;;;3.23;2.53;;;10.10;99.90;;;;;;4992527;28;20245;-81
2021/11/02 01:03:43;;;;;;;3.30;2.40;;;10.10;99.90;;;;;;5002467;28;20205;-82
2021/11/02 01:06:15;;;;;;;3.23;2.30;;;10.10;99.90;;;;;;5016271;28;20205;-84
2021/11/02 01:08:47;;;;;;;5.40;3.80;;;10.10;99.90;;;;;;5016903;28;20234;-82
2021/11/02 01:11:19;;;;;;;5.33;3.50;;;10.10;99.90;;;;;;5017058;28;20228;-82
2021/11/02 01:13:50;;;;;;;5.60;3.53;;;10.10;99.90;;;;;;5016502;28;20304;-81
2021/11/02 01:16:23;;;;;;;4.20;3.20;;;10.20;99.90;;;;;;4986914;28;20270;-82
2021/11/02 01:18:57;;;;;;;5.53;3.30;;;10.20;99.90;;;;;;4988133;28;20237;-82
2021/11/02 01:21:28;;;;;;;5.43;3.33;;;10.10;99.90;;;;;;5004424;28;20705;-82
2021/11/02 01:23:59;;;;;;;4.60;3.20;;;10.10;99.90;;;;;;5003018;28;20202;-82
2021/11/02 01:26:30;;;;;;;3.27;2.90;;;10.10;99.90;;;;;;5011244;28;20210;-83
2021/11/02 01:29:02;;;;;;;4.00;2.90;;;10.10;99.90;;;;;;5011414;28;20210;-84
2021/11/02 01:31:34;;;;;;;4.77;3.63;;;10.10;99.90;;;;;;5013563;28;20259;-82
2021/11/02 01:34:07;;;;;;;7.50;3.40;;;10.10;99.90;;;;;;5008403;28;20226;-86
2021/11/02 01:36:39;;;;;;;6.27;3.77;;;10.10;99.90;;;;;;4993964;28;20313;-84
2021/11/02 01:39:10;;;;;;;5.33;4.00;;;10.10;99.90;;;;;;5000284;28;20207;-85
2021/11/02 01:41:42;;;;;;;6.83;3.67;;;10.10;99.90;;;;;;4999000;28;20209;-85
2021/11/02 01:44:13;;;;;;;6.40;3.97;;;10.10;99.90;;;;;;4999243;28;20211;-85
2021/11/02 01:49:34;;;;;;;5.10;3.63;;;10.10;99.90;;;;;;5009675;28;20533;-85
2021/11/02 01:54:58;;;;;;;9.97;4.20;;;10.10;99.90;;;;;;4993141;28;20253;-88
2021/11/02 01:57:30;;;;;;;5.60;3.87;;;10.10;99.90;;;;;;5003728;28;20233;-85
2021/11/02 02:00:07;;;;;;;5.83;3.50;;;10.10;99.90;;;;;;5026864;28;20240;-85
2021/11/02 02:02:45;;;;;;;4.77;3.90;;;10.10;99.90;;;;;;5010635;28;20209;-86
2021/11/02 02:05:27;;;;;;;7.53;5.50;;;10.10;99.90;;;;;;5013133;28;20194;-85
2021/11/02 02:08:09;;;;;;;15.90;8.67;;;10.10;99.90;;;;;;5013667;28;20270;-85
2021/11/02 02:10:49;;;;;;;12.73;8.93;;;10.00;99.90;;;;;;5016922;28;20226;-85
2021/11/02 02:13:31;;;;;;;10.33;7.73;;;10.10;99.90;;;;;;5017950;28;20210;-85
2021/11/02 02:16:12;;;;;;;11.57;7.60;;;10.10;99.90;;;;;;5016922;28;20210;-88
2021/11/02 02:18:52;;;;;;;9.97;6.73;;;10.20;99.90;;;;;;5018130;28;20207;-86
2021/11/02 02:21:54;;;;;;;7.33;5.20;;;10.20;99.90;;;;;;5001017;28;20213;-84
2021/11/02 02:24:41;;;;;;;15.87;9.47;;;10.20;99.90;;;;;;5011349;28;20217;-85
2021/11/02 02:27:31;;;;;;;12.30;7.20;;;10.20;99.90;;;;;;5016371;28;20199;-85
2021/11/02 02:30:13;;;;;;;13.97;8.03;;;10.20;99.90;;;;;;5016256;28;20206;-85
2021/11/02 02:32:47;;;;;;;11.30;6.77;;;10.20;99.90;;;;;;5017526;28;20277;-84
2021/11/02 02:35:19;;;;;;;10.40;6.50;;;10.20;99.90;;;;;;5007334;28;20750;-85
2021/11/02 02:37:53;;;;;;;7.83;5.73;;;10.20;99.90;;;;;;5014377;28;20253;-85
2021/11/02 02:40:26;;;;;;;7.33;4.63;;;10.20;99.90;;;;;;5016506;28;20194;-85
2021/11/02 02:43:01;;;;;;;6.60;5.03;;;10.20;99.90;;;;;;5015071;28;20193;-86
2021/11/02 02:48:14;;;;;;;5.20;3.80;;;10.20;99.90;;;;;;5077663;23;20233;-85
2021/11/02 02:50:48;;;;;;;6.60;4.63;;;10.20;99.90;;;;;;5036500;28;20213;-84
2021/11/02 02:53:21;;;;;;;5.63;4.70;;;10.20;99.90;;;;;;5231761;23;20237;-86
2021/11/02 02:55:59;;;;;;;5.40;3.80;;;10.20;99.90;;;;;;5036695;28;20252;-85
2021/11/02 02:58:35;;;;;;;5.97;3.60;;;10.10;99.90;;;;;;5017563;28;20256;-85
2021/11/02 03:01:10;;;;;;;4.60;3.53;;;10.20;99.90;;;;;;5031804;28;20205;-85
2021/11/02 03:03:48;;;;;;;5.80;3.80;;;10.20;99.90;;;;;;5024606;28;20213;-84
2021/11/02 03:06:32;;;;;;;4.00;3.50;;;10.20;99.90;;;;;;5029286;28;20227;-86
2021/11/02 03:09:04;;;;;;;7.97;3.63;;;10.10;99.90;;;;;;5013357;28;20198;-85
2021/11/02 03:11:37;;;;;;;4.40;3.80;;;10.10;99.90;;;;;;5123971;23;20237;-85
2021/11/02 03:14:14;;;;;;;4.93;3.47;;;10.20;99.90;;;;;;5034310;28;20212;-85
2021/11/02 03:16:55;;;;;;;5.20;3.60;;;10.20;99.90;;;;;;5028862;28;20220;-85
2021/11/02 03:51:02;;;;;;;5.03;4.20;;;10.10;99.90;;;;;;4373222;23;20505;-83
2021/11/02 03:56:46;;;;;;;7.00;4.17;;;10.10;99.90;;;;;;4994687;28;20238;-84
2021/11/02 04:22:50;;;;;;;4.63;4.17;;;10.00;99.90;;;;;;4995472;28;20203;-85
2021/11/02 04:31:30;;;;;;;6.23;4.47;;;9.90;99.90;;;;;;4973633;28;20223;-84
2021/11/02 04:43:17;;;;;;;5.20;4.50;;;9.80;99.90;;;;;;4979640;28;20203;-85
2021/11/02 05:48:07;;;;;;;3.73;2.80;;;8.80;99.90;;;;;;4980472;28;20225;-85
2021/11/02 05:53:43;;;;;;;3.73;3.40;;;8.60;99.90;;;;;;4968396;28;20488;-84
2021/11/02 05:56:26;;;;;;;4.77;3.63;;;8.50;99.90;;;;;;5006276;28;20236;-84
2021/11/02 05:59:13;;;;;;;3.97;2.97;;;8.50;99.90;;;;;;5010427;28;20628;-85
2021/11/02 06:01:55;;;;;;;4.30;3.43;;;8.60;99.90;;;;;;4986939;28;20222;-84
2021/11/02 06:07:40;;;;;;;4.23;2.93;;;8.50;99.90;;;;;;4980102;28;20214;-84
2021/11/02 06:10:32;;;;;;;4.20;2.70;;;8.50;99.90;;;;;;4980719;28;20263;-84
2021/11/02 06:27:52;;;;;;;3.43;2.50;;;8.30;99.90;;;;;;4962842;28;20298;-85
2021/11/02 06:30:29;;;;;;;2.90;2.40;;;8.30;99.90;;;;;;4978356;28;20248;-85
2021/11/02 06:33:11;;;;;;;3.33;2.73;;;8.30;99.90;;;;;;4978743;28;20223;-84
2021/11/02 06:35:53;;;;;;;3.83;2.37;;;8.30;99.90;;;;;;4978180;28;20227;-85
2021/11/02 06:44:30;;;;;;;2.93;2.30;;;8.30;99.90;;;;;;4960036;28;20348;-84
2021/11/02 06:50:27;;;;;;;3.50;2.40;;;8.20;99.90;;;;;;4975315;28;20343;-85
2021/11/02 06:53:12;;;;;;;2.77;2.47;;;8.20;99.90;;;;;;4962382;28;20258;-85
2021/11/02 06:59:14;;;;;;;2.80;2.20;;;8.10;99.90;;;;;;4997686;28;20240;-85
2021/11/02 07:15:14;;;;;;;4.63;2.50;;;8.10;99.90;;;;;;4956255;28;20671;-84
2021/11/02 07:17:04;;;;;;;2.40;2.17;;;8.30;99.90;;;;;;4964369;28;20317;-85
2021/11/02 07:19:43;;;;;;;2.60;2.20;;;8.30;99.90;;;;;;4957884;29;20291;-84
2021/11/02 07:22:26;;;;;;;5.40;2.53;;;8.30;99.90;;;;;;4940106;29;20635;-84
2021/11/02 07:25:08;;;;;;;3.57;2.40;;;8.40;99.90;;;;;;4975949;28;20246;-87
2021/11/02 07:28:02;;;;;;;3.63;2.27;;;8.40;99.90;;;;;;4976339;28;20234;-84
2021/11/02 08:45:17;;;;;;;3.83;2.33;;;7.10;99.90;;;;;;4980304;28;20218;-85
2021/11/02 08:47:50;;;;;;;2.47;2.27;;;7.10;99.90;;;;;;4987474;28;20210;-85
2021/11/02 08:50:21;;;;;;;3.47;2.30;;;7.10;99.90;;;;;;4983194;28;20608;-84
2021/11/02 08:52:54;;;;;;;3.47;2.03;;;7.10;99.90;;;;;;4959683;28;20226;-85
2021/11/02 08:55:25;;;;;;;2.40;2.20;;;7.10;99.90;;;;;;4958841;28;20680;-84
2021/11/02 08:57:58;;;;;;;2.23;2.03;;;7.00;99.90;;;;;;4969320;28;20297;-84
2021/11/02 09:00:34;;;;;;;2.63;2.03;;;7.00;99.90;;;;;;4998880;28;20581;-84
2021/11/02 09:03:17;;;;;;;2.40;2.20;;;7.00;99.90;;;;;;4988797;28;20234;-84
2021/11/02 09:05:52;;;;;;;2.23;2.03;;;7.00;99.90;;;;;;4978042;28;20244;-85
2021/11/02 09:08:26;;;;;;;2.10;1.93;;;7.00;99.90;;;;;;4978032;28;20230;-85
2021/11/02 09:10:59;;;;;;;2.80;2.40;;;7.00;99.90;;;;;;4960108;28;20616;-84
2021/11/02 09:13:34;;;;;;;3.87;2.17;;;7.00;99.90;;;;;;4959571;28;20231;-83
2021/11/02 09:16:08;;;;;;;3.77;2.30;;;7.00;99.90;;;;;;4958779;28;20215;-85
2021/11/02 09:18:39;;;;;;;2.67;2.23;;;7.00;99.90;;;;;;4958583;28;20239;-84
2021/11/02 09:21:11;;;;;;;2.17;1.90;;;7.00;99.90;;;;;;4973607;28;20207;-84
2021/11/02 09:23:43;;;;;;;2.30;2.10;;;7.00;99.90;;;;;;4977425;28;20247;-85
2021/11/02 09:26:16;;;;;;;2.43;2.23;;;7.00;99.90;;;;;;4968120;28;20214;-84
2021/11/02 09:28:48;;;;;;;3.87;2.07;;;7.10;99.90;;;;;;4982332;28;20266;-84
2021/11/02 09:31:23;;;;;;;4.03;2.03;;;7.10;99.90;;;;;;4991889;28;20429;-84
2021/11/02 09:33:55;;;;;;;2.17;2.00;;;7.20;99.90;;;;;;4961016;28;20298;-85
2021/11/02 09:36:37;;;;;;;2.10;1.90;;;7.30;99.90;;;;;;4960474;28;20210;-85
2021/11/02 09:39:11;;;;;;;3.20;1.87;;;7.30;99.90;;;;;;4959515;28;20238;-85
2021/11/02 09:42:05;;;;;;;2.60;2.07;;;7.30;99.90;;;;;;4958412;28;20237;-85
2021/11/02 09:45:12;;;;;;;2.40;2.00;;;7.40;99.90;;;;;;4959237;28;20215;-84
2021/11/02 09:48:04;;;;;;;2.40;2.13;;;7.40;99.90;;;;;;4955224;28;20211;-84
2021/11/02 09:51:06;;;;;;;2.20;2.00;;;7.40;99.90;;;;;;4961425;28;20267;-84
2021/11/02 09:54:17;;;;;;;2.20;2.00;;;7.50;99.90;;;;;;4945360;28;20215;-83
2021/11/02 09:57:12;;;;;;;3.17;2.30;;;7.50;99.90;;;;;;4981539;28;20554;-84
2021/11/02 10:00:11;;;;;;;4.17;2.50;;;7.50;99.90;;;;;;4977899;28;20218;-84
2021/11/02 10:03:28;;;;;;;2.40;2.20;;;7.60;99.90;;;;;;4976765;28;20812;-84
2021/11/02 10:06:36;;;;;;;3.43;2.60;;;7.60;99.90;;;;;;4973266;28;20199;-84
2021/11/02 10:09:11;;;;;;;3.10;1.97;;;7.60;99.90;;;;;;4958563;29;20242;-84
2021/11/02 10:11:47;;;;;;;3.63;2.40;;;7.60;99.90;;;;;;4958153;28;20638;-85
2021/11/02 10:14:50;;;;;;;2.90;2.07;;;7.60;99.90;;;;;;4971683;28;20625;-83
2021/11/02 10:17:50;;;;;;;4.43;1.93;;;7.60;99.90;;;;;;4976783;28;20222;-83
2021/11/02 10:20:46;;;;;;;2.50;2.20;;;7.60;99.90;;;;;;4971692;28;20233;-84
2021/11/02 10:23:27;;;;;;;2.20;2.00;;;7.50;99.90;;;;;;4952569;28;20239;-84
2021/11/02 10:26:25;;;;;;;2.20;2.00;;;7.50;99.90;;;;;;4959756;28;20234;-85
2021/11/02 10:29:41;;;;;;;1.90;1.80;;;7.50;99.90;;;;;;4981395;28;20214;-85
2021/11/02 10:32:14;;;;;;;2.20;2.00;;;7.40;99.90;;;;;;4975759;28;20214;-83
2021/11/02 10:35:03;;;;;;;3.00;2.07;;;7.40;99.90;;;;;;4969844;28;20221;-84
2021/11/02 10:38:04;;;;;;;1.80;1.70;;;7.30;99.90;;;;;;4973271;28;20241;-85
2021/11/02 10:40:47;;;;;;;2.50;2.10;;;7.30;99.90;;;;;;4977162;28;20215;-85
2021/11/02 10:43:56;;;;;;;1.80;1.70;;;7.30;99.90;;;;;;4957562;28;20730;-86
2021/11/02 10:46:33;;;;;;;2.20;1.93;;;7.30;99.90;;;;;;4947325;28;20632;-84
2021/11/02 10:49:16;;;;;;;1.90;1.80;;;7.30;99.90;;;;;;4976774;28;20668;-84
2021/11/02 10:51:59;;;;;;;2.17;1.93;;;7.30;99.90;;;;;;4976833;28;20246;-84
2021/11/02 10:54:55;;;;;;;1.80;1.53;;;7.20;99.90;;;;;;4967468;28;20625;-84
2021/11/02 10:57:40;;;;;;;2.00;1.67;;;7.30;99.90;;;;;;4988910;28;20280;-83
2021/11/02 11:00:12;;;;;;;1.93;1.73;;;7.20;99.90;;;;;;4971634;28;20208;-84
2021/11/02 11:02:47;;;;;;;2.30;2.10;;;7.20;99.90;;;;;;4975547;28;20210;-84
2021/11/02 11:05:19;;;;;;;2.00;1.80;;;7.10;99.90;;;;;;4976575;28;20456;-84
2021/11/02 11:07:55;;;;;;;1.83;1.60;;;7.20;99.90;;;;;;4972330;28;20217;-84
2021/11/02 11:10:30;;;;;;;2.27;1.93;;;7.20;99.90;;;;;;4962103;28;20238;-84
2021/11/02 11:13:02;;;;;;;2.20;1.70;;;7.20;99.90;;;;;;4957707;28;20324;-85
2021/11/02 11:15:34;;;;;;;4.77;2.00;;;7.20;99.90;;;;;;4956596;28;20571;-84
2021/11/02 11:18:07;;;;;;;1.80;1.60;;;7.20;99.90;;;;;;4943904;29;20269;-84
2021/11/02 11:20:39;;;;;;;4.07;2.00;;;7.20;99.90;;;;;;4961447;28;20246;-83
2021/11/02 11:23:13;;;;;;;1.90;1.70;;;7.20;99.90;;;;;;4961491;28;20243;-84
2021/11/02 11:25:52;;;;;;;2.43;2.00;;;7.20;99.90;;;;;;4960582;28;20231;-85
2021/11/02 11:28:24;;;;;;;2.03;1.83;;;7.20;99.90;;;;;;4978368;28;20243;-85
2021/11/02 11:30:58;;;;;;;2.07;1.77;;;7.20;99.90;;;;;;5000155;28;20218;-85
2021/11/02 11:33:30;;;;;;;2.00;1.70;;;7.20;99.90;;;;;;5000085;28;20663;-85
2021/11/02 11:36:04;;;;;;;3.10;2.00;;;7.20;99.90;;;;;;4998915;28;20208;-84
2021/11/02 11:38:41;;;;;;;3.20;2.37;;;7.20;99.90;;;;;;4999795;28;20237;-84
2021/11/02 11:41:17;;;;;;;2.30;1.90;;;7.20;99.90;;;;;;4983663;28;20221;-85
2021/11/02 11:43:53;;;;;;;2.27;2.07;;;7.20;99.90;;;;;;4993175;28;20672;-85
2021/11/02 11:46:29;;;;;;;2.40;2.13;;;7.20;99.90;;;;;;4963106;28;20199;-84
2021/11/02 11:49:03;;;;;;;2.17;2.00;;;7.20;99.90;;;;;;4980470;28;20207;-85
2021/11/02 11:51:36;;;;;;;3.07;2.13;;;7.20;99.90;;;;;;4979817;28;20743;-83
2021/11/02 11:54:13;;;;;;;2.30;2.10;;;7.20;99.90;;;;;;4980029;28;20245;-85
2021/11/02 11:56:46;;;;;;;2.23;1.93;;;7.20;99.90;;;;;;4979317;28;20209;-85
2021/11/02 11:59:20;;;;;;;2.53;2.00;;;7.20;99.90;;;;;;4979961;28;20249;-85
2021/11/02 12:02:02;;;;;;;2.57;2.10;;;7.20;99.90;;;;;;4979705;28;20226;-86
2021/11/02 12:04:38;;;;;;;2.53;2.03;;;7.20;99.90;;;;;;4961685;28;20223;-84
2021/11/02 12:07:16;;;;;;;2.53;2.10;;;7.20;99.90;;;;;;4942394;29;20212;-85
2021/11/02 12:09:48;;;;;;;2.53;1.83;;;7.30;99.90;;;;;;4960220;28;20210;-85
2021/11/02 12:12:25;;;;;;;2.90;2.17;;;7.30;99.90;;;;;;4960266;28;20211;-85
2021/11/02 12:14:57;;;;;;;4.33;2.37;;;7.30;99.90;;;;;;4960213;28;20227;-85
2021/11/02 12:17:33;;;;;;;3.10;2.20;;;7.30;99.90;;;;;;4960724;29;20247;-84
2021/11/02 12:20:11;;;;;;;3.93;2.60;;;7.30;99.90;;;;;;4960519;29;20298;-84
2021/11/02 12:22:56;;;;;;;3.30;2.50;;;7.30;99.90;;;;;;4960513;28;20211;-85
2021/11/02 12:25:36;;;;;;;4.27;2.80;;;7.40;99.90;;;;;;4959005;29;20577;-84
2021/11/02 12:28:26;;;;;;;3.20;2.90;;;7.40;99.90;;;;;;4972838;28;20270;-84
2021/11/02 12:31:00;;;;;;;3.70;3.13;;;7.40;99.90;;;;;;4984752;28;20206;-85
2021/11/02 12:33:33;;;;;;;3.67;3.37;;;7.40;99.90;;;;;;4981174;28;20202;-85
2021/11/02 12:36:08;;;;;;;4.00;3.07;;;7.40;99.90;;;;;;4987014;28;20310;-84
2021/11/02 12:38:42;;;;;;;3.67;2.87;;;7.40;99.90;;;;;;4989362;28;20237;-85
2021/11/02 12:41:24;;;;;;;7.13;2.90;;;7.50;99.90;;;;;;4992332;28;20215;-85
2021/11/02 12:44:07;;;;;;;4.07;2.57;;;7.50;99.90;;;;;;4995979;28;20210;-85
2021/11/02 12:46:40;;;;;;;2.83;2.53;;;7.50;99.90;;;;;;4985069;28;20266;-85
2021/11/02 12:49:14;;;;;;;3.13;2.80;;;7.50;99.90;;;;;;4980872;28;20219;-84
2021/11/02 12:51:58;;;;;;;2.80;2.50;;;7.50;99.90;;;;;;4979597;28;20218;-85
2021/11/02 12:54:30;;;;;;;2.57;2.30;;;7.50;99.90;;;;;;4977810;28;20206;-84
2021/11/02 12:57:05;;;;;;;2.60;2.33;;;7.60;99.90;;;;;;4978239;28;20207;-84
2021/11/02 12:59:48;;;;;;;2.20;2.00;;;7.60;99.90;;;;;;4997279;28;20244;-86
2021/11/02 13:02:22;;;;;;;2.97;2.27;;;7.60;99.90;;;;;;5001691;28;20213;-84
2021/11/02 13:05:02;;;;;;;2.90;1.90;;;7.60;99.90;;;;;;4984522;28;20233;-84
2021/11/02 13:07:38;;;;;;;2.40;1.70;;;7.60;99.90;;;;;;4997935;28;20213;-86
2021/11/02 13:10:18;;;;;;;2.93;1.70;;;7.60;99.90;;;;;;4973379;28;20305;-85
2021/11/02 13:12:52;;;;;;;1.87;1.73;;;7.60;99.90;;;;;;4959520;28;20211;-85
2021/11/02 13:15:26;;;;;;;2.03;1.80;;;7.60;99.90;;;;;;4957964;28;20266;-84
2021/11/02 13:18:02;;;;;;;2.30;2.10;;;7.60;99.90;;;;;;4958715;29;20259;-84
2021/11/02 13:21:00;;;;;;;1.97;1.60;;;7.60;99.90;;;;;;4959200;29;20222;-84
2021/11/02 13:23:44;;;;;;;1.87;1.67;;;7.60;99.90;;;;;;4958795;28;20286;-83
2021/11/02 13:26:19;;;;;;;2.13;1.97;;;7.60;99.90;;;;;;4958015;28;20209;-84
2021/11/02 13:28:51;;;;;;;2.97;1.87;;;7.60;99.90;;;;;;4973609;28;20225;-85
2021/11/02 13:31:31;;;;;;;2.27;2.07;;;7.60;99.90;;;;;;4996763;28;20226;-85
2021/11/02 13:34:06;;;;;;;2.13;1.93;;;7.60;99.90;;;;;;4998450;28;20245;-84
2021/11/02 13:36:38;;;;;;;3.53;1.70;;;7.60;99.90;;;;;;4997169;28;20725;-84
2021/11/02 13:39:11;;;;;;;2.13;1.90;;;7.60;99.90;;;;;;4997743;28;20257;-85
2021/11/02 13:41:49;;;;;;;2.00;1.80;;;7.60;99.90;;;;;;4975888;28;20222;-85
2021/11/02 13:44:22;;;;;;;2.57;1.87;;;7.60;99.90;;;;;;4977877;28;20203;-83
2021/11/02 13:47:00;;;;;;;3.00;1.93;;;7.60;99.90;;;;;;4959030;28;20211;-83
2021/11/02 13:49:32;;;;;;;1.90;1.67;;;7.60;99.90;;;;;;4976519;28;20266;-83
2021/11/02 13:52:04;;;;;;;2.47;1.80;;;7.60;99.90;;;;;;4958485;29;20225;-84
2021/11/02 13:54:35;;;;;;;1.90;1.80;;;7.60;99.90;;;;;;4965893;28;20217;-85
2021/11/02 13:57:07;;;;;;;2.03;1.77;;;7.60;99.90;;;;;;4976636;28;20238;-85
2021/11/02 13:59:38;;;;;;;2.27;1.60;;;7.70;99.90;;;;;;4977629;28;20378;-84
2021/11/02 14:02:12;;;;;;;1.60;1.50;;;7.70;99.90;;;;;;4977817;28;20257;-84
2021/11/02 14:04:46;;;;;;;2.43;1.70;;;7.70;99.90;;;;;;4976932;28;20297;-84
2021/11/02 14:07:20;;;;;;;1.73;1.63;;;7.70;99.90;;;;;;4975234;28;20214;-83
2021/11/02 14:09:56;;;;;;;2.47;1.90;;;7.70;99.90;;;;;;4982466;28;20252;-84
2021/11/02 14:12:30;;;;;;;1.77;1.47;;;7.70;99.90;;;;;;4989598;28;20237;-84
2021/11/02 14:15:17;;;;;;;2.13;1.60;;;7.70;99.90;;;;;;4988226;28;20578;-87
2021/11/02 14:18:10;;;;;;;2.63;1.40;;;7.70;99.90;;;;;;4988633;28;20702;-85
2021/11/02 14:20:49;;;;;;;1.70;1.60;;;7.80;99.90;;;;;;4984330;28;20292;-85
2021/11/02 14:23:33;;;;;;;1.93;1.53;;;7.80;99.90;;;;;;4988327;28;20215;-84
2021/11/02 14:26:29;;;;;;;1.67;1.57;;;7.70;99.90;;;;;;4990713;28;20213;-85
2021/11/02 14:29:02;;;;;;;3.20;1.60;;;7.70;99.90;;;;;;4989902;28;20317;-84
2021/11/02 14:31:49;;;;;;;3.33;1.63;;;7.80;99.90;;;;;;4993785;28;20667;-84
2021/11/02 14:34:51;;;;;;;1.70;1.60;;;7.80;99.90;;;;;;4981695;28;20272;-84
2021/11/02 14:37:25;;;;;;;2.93;1.60;;;7.80;99.90;;;;;;4987232;28;20229;-84
2021/11/02 14:40:01;;;;;;;3.60;1.60;;;7.90;99.90;;;;;;4981532;28;20241;-85
2021/11/02 14:42:46;;;;;;;2.40;1.60;;;7.80;99.90;;;;;;4969479;28;20249;-85
2021/11/02 14:45:18;;;;;;;1.70;1.60;;;7.80;99.90;;;;;;4977313;28;20309;-84
2021/11/02 14:47:50;;;;;;;2.00;1.73;;;7.80;99.90;;;;;;4978044;28;20215;-85
2021/11/02 14:50:38;;;;;;;2.07;1.80;;;7.80;99.90;;;;;;4985736;28;20203;-85
2021/11/02 14:53:31;;;;;;;3.17;1.97;;;7.80;99.90;;;;;;4994015;28;20234;-85
2021/11/02 14:56:04;;;;;;;2.00;1.77;;;7.80;99.90;;;;;;4994164;28;20187;-82
2021/11/02 14:58:49;;;;;;;2.30;2.00;;;7.80;99.90;;;;;;4991769;28;20217;-85
2021/11/02 15:01:30;;;;;;;1.70;1.60;;;7.80;99.90;;;;;;4972277;28;20225;-84
2021/11/02 15:04:23;;;;;;;2.77;1.70;;;7.80;99.90;;;;;;4990730;28;20216;-83
2021/11/02 15:07:00;;;;;;;3.30;1.80;;;7.70;99.90;;;;;;4987655;28;20269;-85
2021/11/02 15:09:33;;;;;;;2.73;1.90;;;7.80;99.90;;;;;;4983533;28;20204;-86
2021/11/02 15:12:06;;;;;;;2.00;1.80;;;7.80;99.90;;;;;;4983295;28;20269;-85
2021/11/02 15:14:41;;;;;;;3.03;1.90;;;7.70;99.90;;;;;;4988359;28;20630;-85
2021/11/02 15:17:15;;;;;;;4.67;2.30;;;7.70;99.90;;;;;;4989260;28;20215;-85
2021/11/02 15:19:47;;;;;;;2.73;2.20;;;7.70;99.90;;;;;;4988716;28;20257;-84
2021/11/02 15:22:22;;;;;;;2.00;1.80;;;7.70;99.90;;;;;;4989250;28;20265;-86
2021/11/02 15:24:57;;;;;;;3.00;2.30;;;7.60;99.90;;;;;;4988349;28;20206;-84
2021/11/02 15:27:31;;;;;;;3.40;2.27;;;7.70;99.90;;;;;;4993316;28;20210;-84
2021/11/02 15:30:05;;;;;;;3.50;2.10;;;7.70;99.90;;;;;;4990275;28;20622;-83
2021/11/02 15:32:39;;;;;;;3.73;2.00;;;7.70;99.90;;;;;;4988690;28;20277;-85
2021/11/02 15:35:11;;;;;;;2.53;1.83;;;7.80;99.90;;;;;;4990437;28;20210;-85
2021/11/02 15:37:48;;;;;;;2.13;1.90;;;7.80;99.90;;;;;;4987110;28;20203;-84
2021/11/02 15:40:23;;;;;;;2.80;2.10;;;7.90;99.90;;;;;;4989344;28;20230;-84
2021/11/02 15:42:58;;;;;;;1.87;1.73;;;8.00;99.90;;;;;;4976653;28;20222;-85
2021/11/02 15:45:38;;;;;;;1.50;1.40;;;8.00;99.90;;;;;;4985609;28;20229;-85
2021/11/02 15:48:11;;;;;;;2.67;1.93;;;8.10;99.90;;;;;;4989009;28;20214;-85
2021/11/02 15:50:45;;;;;;;3.60;2.30;;;8.10;99.90;;;;;;4996819;28;20222;-83
2021/11/02 16:01:45;;;;;;;3.23;2.00;;;8.40;99.90;;;;;;4641375;28;10000497;-85
2021/11/02 16:04:27;;;;;;;2.53;2.10;;;8.40;99.90;;;;;;4979527;28;20233;-85
2021/11/02 16:07:10;;;;;;;4.33;1.80;;;8.50;99.90;;;;;;5038597;23;20245;-85
2021/11/02 16:09:48;;;;;;;2.20;1.90;;;8.50;99.90;;;;;;4993620;28;20234;-86
2021/11/02 16:12:33;;;;;;;2.40;2.20;;;8.70;99.90;;;;;;5011279;28;20201;-85
2021/11/02 16:15:12;;;;;;;2.27;2.07;;;8.70;99.90;;;;;;5007609;28;20214;-86
2021/11/02 16:17:48;;;;;;;3.50;2.40;;;8.70;99.90;;;;;;5013487;28;20205;-86
2021/11/02 16:20:26;;;;;;;1.70;1.60;;;8.80;99.90;;;;;;5014374;28;20225;-85
2021/11/02 16:23:00;;;;;;;2.10;1.90;;;8.80;99.90;;;;;;5018024;28;20190;-87
2021/11/02 16:25:55;;;;;;;2.30;1.83;;;8.90;99.90;;;;;;5009376;28;20278;-85
2021/11/02 16:28:30;;;;;;;2.70;1.90;;;8.90;99.90;;;;;;5008993;28;20297;-85
2021/11/02 16:31:05;;;;;;;3.20;2.10;;;8.90;99.90;;;;;;5012526;28;20369;-84
2021/11/02 16:33:39;;;;;;;2.10;1.83;;;9.00;99.90;;;;;;5010156;28;20198;-85
2021/11/02 16:36:21;;;;;;;2.10;1.90;;;9.00;99.90;;;;;;4983871;28;20199;-85
2021/11/02 16:38:56;;;;;;;1.93;1.60;;;9.20;99.90;;;;;;4993529;28;20249;-85
2021/11/02 16:41:30;;;;;;;2.13;1.70;;;9.40;99.90;;;;;;4987071;28;20273;-85
2021/11/02 16:44:04;;;;;;;2.53;1.50;;;9.60;99.90;;;;;;4981891;28;20234;-86
2021/11/02 16:46:39;;;;;;;1.93;1.40;;;9.70;99.90;;;;;;4982959;28;20207;-85
2021/11/02 16:49:23;;;;;;;3.27;1.80;;;9.80;99.90;;;;;;4983025;28;20210;-84
2021/11/02 16:51:58;;;;;;;2.53;2.00;;;9.90;99.90;;;;;;4985475;28;20269;-86
2021/11/02 16:54:36;;;;;;;2.10;1.50;;;10.00;99.90;;;;;;4983170;28;20250;-86
2021/11/02 16:57:12;;;;;;;2.00;1.50;;;10.10;99.90;;;;;;4990478;28;20584;-86
2021/11/02 16:59:52;;;;;;;2.00;1.70;;;10.20;99.90;;;;;;5024928;28;20204;-86
2021/11/02 17:02:25;;;;;;;1.63;1.40;;;10.20;99.90;;;;;;5022472;28;20233;-85
2021/11/02 17:05:14;;;;;;;1.67;1.30;;;10.20;99.90;;;;;;4987030;28;20246;-88
2021/11/02 17:07:47;;;;;;;1.83;1.20;;;10.20;99.90;;;;;;4988833;28;20277;-85
2021/11/02 17:10:32;;;;;;;1.63;1.37;;;10.10;99.90;;;;;;4987589;28;20275;-85
2021/11/02 17:13:07;;;;;;;2.00;1.50;;;10.20;99.90;;;;;;5008225;28;20238;-85
2021/11/02 17:15:49;;;;;;;1.53;1.40;;;10.20;99.90;;;;;;5016479;28;20233;-84
2021/11/02 17:18:27;;;;;;;1.50;1.40;;;10.30;99.90;;;;;;5018807;28;20218;-85
2021/11/02 17:21:05;;;;;;;2.10;1.30;;;10.30;99.90;;;;;;5015045;28;20233;-86
2021/11/02 17:23:38;;;;;;;4.80;1.70;;;10.40;99.90;;;;;;5016064;28;20210;-86
2021/11/02 17:26:11;;;;;;;2.33;1.40;;;10.50;99.90;;;;;;5013828;28;20210;-84
2021/11/02 17:28:45;;;;;;;3.73;3.13;;;10.50;99.90;;;;;;5018239;28;20206;-86
2021/11/02 17:31:18;;;;;;;3.43;2.07;;;10.60;99.90;;;;;;5017685;28;20210;-85
2021/11/02 17:33:51;;;;;;;6.90;4.50;;;10.60;99.90;;;;;;5012969;28;20210;-84
2021/11/02 17:36:24;;;;;;;6.13;4.10;;;10.60;99.90;;;;;;5003907;28;20207;-85
2021/11/02 17:38:56;;;;;;;5.33;3.70;;;10.60;99.90;;;;;;5002716;28;20217;-85
2021/11/02 17:41:28;;;;;;;6.53;3.93;;;10.60;99.90;;;;;;5005586;28;20233;-85
2021/11/02 17:44:00;;;;;;;3.53;3.07;;;10.50;99.90;;;;;;5001532;28;20206;-85
2021/11/02 17:46:32;;;;;;;4.67;3.70;;;10.50;99.90;;;;;;5001223;28;20253;-85
2021/11/02 17:49:04;;;;;;;5.73;3.67;;;10.50;99.90;;;;;;5003994;28;20213;-84
2021/11/02 17:51:38;;;;;;;7.77;4.17;;;10.40;99.90;;;;;;5004229;28;20206;-85
2021/11/02 17:54:11;;;;;;;5.53;3.90;;;10.40;99.90;;;;;;5095005;23;20683;-85
2021/11/02 17:56:44;;;;;;;4.07;3.50;;;10.40;99.90;;;;;;5073286;28;20761;-84
2021/11/02 18:01:49;;;;;;;7.20;3.10;;;10.30;99.90;;;;;;4961186;28;20711;-85
2021/11/02 18:04:22;;;;;;;3.67;3.03;;;10.20;99.90;;;;;;4964786;29;20218;-85
2021/11/02 18:06:56;;;;;;;3.10;2.77;;;10.20;99.90;;;;;;4973492;28;20204;-86
2021/11/02 18:09:28;;;;;;;4.30;2.90;;;10.20;99.90;;;;;;4969048;28;20195;-85
2021/11/02 18:11:59;;;;;;;3.50;2.37;;;10.10;99.90;;;;;;4973530;28;20617;-85
2021/11/02 18:14:32;;;;;;;3.83;1.93;;;10.10;99.90;;;;;;4971893;28;20204;-85
2021/11/02 18:17:04;;;;;;;3.50;2.10;;;10.10;99.90;;;;;;4972122;29;20204;-84
2021/11/02 18:19:40;;;;;;;4.40;2.00;;;10.10;99.90;;;;;;4969114;28;20212;-86
2021/11/02 18:22:14;;;;;;;5.20;2.60;;;10.00;99.90;;;;;;4968982;28;20238;-84